createdAt,value
2018-05-02T00:02:09.166Z,9.79
2018-05-02T00:04:36.792Z,9.77
2018-05-02T00:07:04.311Z,9.77
2018-05-02T00:09:31.845Z,9.77
2018-05-02T00:11:59.375Z,9.76
2018-05-02T00:14:26.892Z,9.71
2018-05-02T00:16:54.490Z,9.72
2018-05-02T00:19:22.011Z,9.68
2018-05-02T00:21:49.523Z,9.59
2018-05-02T00:24:17.036Z,9.63
2018-05-02T00:26:44.560Z,9.65
2018-05-02T00:29:12.185Z,9.63
2018-05-02T00:31:39.708Z,9.61
2018-05-02T00:34:07.229Z,9.63
2018-05-02T00:36:34.765Z,9.61
2018-05-02T00:39:02.284Z,9.54
2018-05-02T00:41:29.816Z,9.51
2018-05-02T00:43:57.451Z,9.46
2018-05-02T00:46:25.010Z,9.46
2018-05-02T00:49:04.347Z,9.41
2018-05-02T00:51:31.868Z,9.39
2018-05-02T00:53:59.424Z,9.28
2018-05-02T00:56:26.957Z,9.37
2018-05-02T00:58:54.551Z,9.32
2018-05-02T01:01:22.069Z,9.26
2018-05-02T01:03:49.589Z,9.31
2018-05-02T01:06:17.117Z,9.29
2018-05-02T01:08:44.639Z,9.30
2018-05-02T01:11:12.166Z,9.26
2018-05-02T01:13:39.694Z,9.22
2018-05-02T01:16:07.226Z,9.20
2018-05-02T01:18:34.728Z,9.21
2018-05-02T01:21:02.247Z,9.18
2018-05-02T01:23:29.760Z,9.18
2018-05-02T01:25:57.274Z,9.13
2018-05-02T01:28:24.789Z,9.11
2018-05-02T01:30:52.304Z,9.08
2018-05-02T01:33:19.823Z,9.08
2018-05-02T01:35:47.335Z,9.08
2018-05-02T01:38:14.853Z,9.05
2018-05-02T01:40:42.360Z,9.02
2018-05-02T01:43:09.874Z,9.00
2018-05-02T01:45:37.387Z,8.96
2018-05-02T01:48:04.900Z,8.88
2018-05-02T01:50:32.424Z,8.87
2018-05-02T01:52:59.940Z,8.84
2018-05-02T01:55:27.472Z,8.80
2018-05-02T01:57:55.005Z,8.76
2018-05-02T02:00:22.531Z,8.70
2018-05-02T02:02:50.118Z,8.73
2018-05-02T02:05:17.679Z,8.74
2018-05-02T02:07:45.196Z,8.70
2018-05-02T02:10:12.719Z,8.69
2018-05-02T02:12:40.247Z,8.70
2018-05-02T02:15:07.755Z,8.68
2018-05-02T02:17:35.265Z,8.67
2018-05-02T02:20:02.777Z,8.66
2018-05-02T02:22:30.297Z,8.62
2018-05-02T02:24:57.820Z,8.62
2018-05-02T02:27:25.340Z,8.63
2018-05-02T02:29:52.885Z,8.63
2018-05-02T02:32:20.434Z,8.60
2018-05-02T02:34:47.964Z,8.60
2018-05-02T02:37:15.549Z,8.59
2018-05-02T02:39:43.074Z,8.55
2018-05-02T02:42:10.659Z,8.54
2018-05-02T02:44:38.167Z,8.51
2018-05-02T02:47:05.676Z,8.49
2018-05-02T02:49:33.234Z,8.49
2018-05-02T02:52:00.802Z,8.49
2018-05-02T02:54:28.321Z,8.49
2018-05-02T02:56:55.851Z,8.43
2018-05-02T02:59:23.512Z,8.39
2018-05-02T03:01:51.120Z,8.37
2018-05-02T03:04:18.709Z,8.33
2018-05-02T03:06:46.276Z,8.30
2018-05-02T03:09:13.830Z,8.32
2018-05-02T03:11:41.361Z,8.33
2018-05-02T03:14:08.955Z,8.31
2018-05-02T03:16:36.481Z,8.33
2018-05-02T03:19:04.074Z,8.33
2018-05-02T03:21:31.598Z,8.33
2018-05-02T03:23:59.124Z,8.30
2018-05-02T03:26:26.756Z,8.30
2018-05-02T03:28:54.268Z,8.28
2018-05-02T03:31:21.791Z,8.28
2018-05-02T03:33:49.429Z,8.25
2018-05-02T03:36:16.948Z,8.26
2018-05-02T03:38:44.466Z,8.27
2018-05-02T03:41:11.976Z,8.24
2018-05-02T03:43:39.690Z,8.27
2018-05-02T03:46:07.218Z,8.20
2018-05-02T03:48:34.790Z,8.18
2018-05-02T03:51:02.354Z,8.19
2018-05-02T03:53:29.879Z,8.14
2018-05-02T03:55:57.474Z,8.12
2018-05-02T03:58:25.003Z,8.08
2018-05-02T04:01:04.376Z,8.07
2018-05-02T04:03:43.708Z,8.13
2018-05-02T04:06:23.089Z,8.16
2018-05-02T04:08:51.446Z,8.23
2018-05-02T04:11:18.964Z,8.28
2018-05-02T04:13:46.479Z,8.31
2018-05-02T04:16:14.102Z,8.34
2018-05-02T04:18:41.691Z,8.40
2018-05-02T04:21:09.163Z,8.43
2018-05-02T04:23:36.675Z,8.48
2018-05-02T04:26:04.257Z,8.54
2018-05-02T04:28:31.756Z,8.59
2018-05-02T04:30:59.268Z,8.63
2018-05-02T04:33:26.776Z,8.69
2018-05-02T04:35:54.288Z,8.77
2018-05-02T04:38:21.808Z,8.78
2018-05-02T04:40:49.320Z,8.85
2018-05-02T04:43:16.835Z,8.91
2018-05-02T04:45:44.414Z,9.00
2018-05-02T04:48:11.931Z,9.04
2018-05-02T04:50:39.472Z,9.10
2018-05-02T04:53:07.019Z,9.18
2018-05-02T04:55:34.549Z,9.24
2018-05-02T04:58:02.068Z,9.35
2018-05-02T05:00:29.673Z,9.48
2018-05-02T05:02:57.200Z,9.56
2018-05-02T05:05:24.722Z,9.67
2018-05-02T05:07:52.246Z,9.74
2018-05-02T05:10:19.773Z,9.90
2018-05-02T05:12:47.297Z,10.03
2018-05-02T05:15:14.933Z,10.19
2018-05-02T05:17:42.458Z,10.33
2018-05-02T05:20:09.980Z,10.42
2018-05-02T05:22:37.604Z,10.52
2018-05-02T05:25:05.164Z,10.53
2018-05-02T05:27:32.697Z,10.71
2018-05-02T05:30:00.291Z,10.88
2018-05-02T05:32:27.817Z,10.93
2018-05-02T05:34:55.342Z,11.08
2018-05-02T05:37:22.969Z,11.25
2018-05-02T05:39:50.532Z,11.42
2018-05-02T05:42:18.062Z,11.55
2018-05-02T05:44:45.649Z,11.65
2018-05-02T05:47:13.177Z,11.83
2018-05-02T05:49:40.724Z,11.88
2018-05-02T05:52:08.336Z,11.79
2018-05-02T05:54:35.867Z,12.06
2018-05-02T05:57:03.385Z,12.16
2018-05-02T05:59:30.993Z,12.08
2018-05-02T06:01:58.518Z,12.24
2018-05-02T06:04:26.073Z,12.39
2018-05-02T06:06:53.691Z,12.29
2018-05-02T06:09:21.255Z,12.25
2018-05-02T06:11:48.780Z,12.38
2018-05-02T06:14:16.299Z,12.32
2018-05-02T06:16:43.831Z,12.38
2018-05-02T06:19:11.361Z,12.52
2018-05-02T06:21:38.951Z,12.74
2018-05-02T06:24:06.511Z,12.51
2018-05-02T06:26:34.025Z,12.59
2018-05-02T06:29:01.558Z,12.69
2018-05-02T06:31:29.082Z,13.16
2018-05-02T06:33:56.613Z,13.46
2018-05-02T06:36:24.137Z,13.54
2018-05-02T06:38:51.769Z,13.31
2018-05-02T06:41:19.292Z,13.65
2018-05-02T06:43:46.812Z,13.93
2018-05-02T06:46:14.345Z,13.95
2018-05-02T06:48:41.900Z,14.02
2018-05-02T06:51:09.437Z,14.14
2018-05-02T06:53:36.976Z,14.44
2018-05-02T06:56:04.506Z,14.04
2018-05-02T06:58:32.037Z,14.28
2018-05-02T07:00:59.570Z,14.37
2018-05-02T07:03:27.163Z,14.52
2018-05-02T07:05:54.690Z,14.78
2018-05-02T07:08:22.208Z,14.84
2018-05-02T07:10:49.722Z,15.18
2018-05-02T07:13:17.271Z,15.10
2018-05-02T07:15:44.813Z,15.22
2018-05-02T07:18:12.372Z,15.14
2018-05-02T07:20:39.988Z,15.18
2018-05-02T07:23:07.535Z,15.73
2018-05-02T07:25:35.052Z,15.69
2018-05-02T07:28:02.585Z,15.39
2018-05-02T07:30:30.118Z,15.63
2018-05-02T07:32:57.758Z,15.58
2018-05-02T07:35:25.189Z,16.02
2018-05-02T07:37:52.743Z,16.35
2018-05-02T07:40:20.278Z,15.34
2018-05-02T07:42:47.811Z,15.44
2018-05-02T07:45:15.343Z,16.06
2018-05-02T07:47:42.880Z,16.42
2018-05-02T07:50:10.419Z,15.69
2018-05-02T07:52:37.948Z,16.54
2018-05-02T07:55:05.480Z,16.93
2018-05-02T07:57:33.008Z,17.41
2018-05-02T08:00:00.532Z,17.09
2018-05-02T08:02:28.064Z,16.69
2018-05-02T08:04:55.600Z,16.57
2018-05-02T08:07:23.137Z,17.41
2018-05-02T08:09:50.669Z,17.27
2018-05-02T08:12:18.189Z,17.18
2018-05-02T08:14:45.711Z,16.46
2018-05-02T08:17:13.246Z,17.00
2018-05-02T08:19:40.772Z,16.98
2018-05-02T08:22:08.296Z,16.67
2018-05-02T08:24:35.819Z,17.71
2018-05-02T08:27:03.352Z,18.04
2018-05-02T08:29:30.880Z,17.39
2018-05-02T08:31:58.408Z,17.26
2018-05-02T08:34:25.934Z,17.55
2018-05-02T08:36:53.453Z,17.32
2018-05-02T08:39:20.967Z,17.46
2018-05-02T08:41:48.476Z,17.47
2018-05-02T08:44:15.995Z,17.38
2018-05-02T08:46:43.511Z,18.47
2018-05-02T08:49:11.044Z,18.60
2018-05-02T08:51:38.577Z,18.52
2018-05-02T08:54:06.101Z,17.94
2018-05-02T08:56:33.618Z,17.53
2018-05-02T08:59:01.151Z,17.70
2018-05-02T09:01:28.668Z,17.64
2018-05-02T09:03:56.192Z,16.83
2018-05-02T09:06:23.724Z,16.99
2018-05-02T09:08:51.284Z,16.68
2018-05-02T09:11:18.782Z,16.69
2018-05-02T09:13:46.311Z,16.93
2018-05-02T09:16:13.833Z,16.61
2018-05-02T09:18:41.352Z,16.59
2018-05-02T09:21:08.913Z,16.49
2018-05-02T09:23:36.443Z,15.64
2018-05-02T09:26:03.963Z,15.56
2018-05-02T09:28:31.483Z,15.42
2018-05-02T09:30:59.005Z,15.31
2018-05-02T09:33:26.516Z,15.27
2018-05-02T09:35:54.035Z,15.42
2018-05-02T09:38:21.635Z,15.49
2018-05-02T09:40:49.127Z,15.58
2018-05-02T09:43:16.649Z,15.29
2018-05-02T09:45:44.167Z,15.57
2018-05-02T09:48:11.711Z,15.42
2018-05-02T09:50:39.229Z,15.48
2018-05-02T09:53:06.749Z,15.22
2018-05-02T09:55:34.274Z,15.24
2018-05-02T09:58:01.801Z,15.19
2018-05-02T10:00:30.253Z,15.13
2018-05-02T10:02:57.772Z,15.17
2018-05-02T10:05:25.292Z,15.08
2018-05-02T10:07:52.815Z,14.92
2018-05-02T10:10:20.328Z,15.01
2018-05-02T10:12:47.948Z,15.16
2018-05-02T10:15:15.415Z,15.13
2018-05-02T10:17:42.932Z,15.18
2018-05-02T10:20:10.462Z,15.23
2018-05-02T10:22:37.985Z,15.04
2018-05-02T10:25:05.499Z,15.05
2018-05-02T10:27:33.029Z,15.06
2018-05-02T10:30:00.560Z,14.87
2018-05-02T10:32:28.097Z,15.24
2018-05-02T10:34:55.607Z,15.25
2018-05-02T10:37:23.130Z,15.40
2018-05-02T10:39:50.654Z,15.57
2018-05-02T10:42:18.179Z,15.49
2018-05-02T10:44:45.691Z,15.77
2018-05-02T10:47:13.217Z,15.74
2018-05-02T10:49:40.744Z,15.73
2018-05-02T10:52:08.269Z,15.84
2018-05-02T10:54:35.784Z,15.88
2018-05-02T10:57:03.317Z,16.01
2018-05-02T10:59:30.900Z,15.87
2018-05-02T11:01:58.406Z,15.76
2018-05-02T11:04:25.920Z,15.84
2018-05-02T11:06:53.450Z,15.97
2018-05-02T11:09:20.986Z,15.89
2018-05-02T11:11:48.505Z,16.00
2018-05-02T11:14:16.036Z,16.06
2018-05-02T11:16:43.621Z,16.01
2018-05-02T11:19:11.152Z,15.97
2018-05-02T11:21:38.662Z,16.15
2018-05-02T11:24:06.198Z,16.45
2018-05-02T11:26:33.749Z,16.47
2018-05-02T11:29:01.255Z,16.34
2018-05-02T11:31:28.771Z,16.47
2018-05-02T11:33:56.306Z,16.21
2018-05-02T11:36:23.837Z,16.32
2018-05-02T11:38:51.347Z,16.24
2018-05-02T11:41:18.957Z,16.25
2018-05-02T11:43:46.481Z,15.97
2018-05-02T11:46:14.100Z,15.88
2018-05-02T11:48:41.616Z,15.82
2018-05-02T11:51:09.148Z,15.76
2018-05-02T11:53:36.688Z,15.92
2018-05-02T11:56:04.207Z,16.06
2018-05-02T11:58:31.731Z,15.68
2018-05-02T12:00:59.276Z,15.64
2018-05-02T12:03:26.903Z,15.71
2018-05-02T12:05:54.377Z,15.66
2018-05-02T12:08:21.910Z,15.40
2018-05-02T12:10:49.442Z,15.35
2018-05-02T12:13:17.028Z,15.21
2018-05-02T12:15:44.553Z,15.11
2018-05-02T12:18:12.080Z,15.17
2018-05-02T12:20:39.605Z,15.11
2018-05-02T12:23:07.128Z,15.14
2018-05-02T12:25:34.653Z,15.31
2018-05-02T12:28:02.186Z,15.33
2018-05-02T12:30:29.704Z,15.19
2018-05-02T12:32:57.236Z,15.08
2018-05-02T12:35:24.839Z,15.11
2018-05-02T12:37:52.303Z,15.18
2018-05-02T12:40:19.836Z,15.12
2018-05-02T12:42:47.354Z,15.22
2018-05-02T12:45:14.863Z,15.12
2018-05-02T12:47:42.375Z,15.08
2018-05-02T12:50:09.883Z,15.01
2018-05-02T12:52:37.421Z,14.99
2018-05-02T12:55:04.949Z,14.91
2018-05-02T12:57:32.463Z,14.83
2018-05-02T12:59:59.972Z,14.91
2018-05-02T13:02:27.527Z,14.84
2018-05-02T13:04:55.025Z,14.97
2018-05-02T13:07:22.550Z,14.96
2018-05-02T13:09:50.080Z,14.80
2018-05-02T13:12:17.612Z,14.90
2018-05-02T13:14:45.137Z,15.03
2018-05-02T13:17:12.668Z,15.11
2018-05-02T13:19:40.194Z,15.25
2018-05-02T13:22:07.750Z,15.16
2018-05-02T13:24:35.278Z,15.21
2018-05-02T13:27:02.803Z,15.23
2018-05-02T13:29:30.323Z,15.29
2018-05-02T13:31:57.880Z,15.56
2018-05-02T13:34:25.417Z,15.59
2018-05-02T13:36:52.939Z,15.49
2018-05-02T13:39:20.463Z,15.51
2018-05-02T13:41:48.023Z,15.64
2018-05-02T13:44:15.597Z,15.88
2018-05-02T13:46:43.161Z,15.76
2018-05-02T13:49:10.759Z,15.73
2018-05-02T13:51:38.301Z,15.81
2018-05-02T13:54:05.828Z,16.09
2018-05-02T13:56:33.480Z,16.02
2018-05-02T13:59:01.038Z,15.97
2018-05-02T14:01:28.576Z,15.94
2018-05-02T14:03:56.105Z,16.14
2018-05-02T14:06:23.698Z,16.13
2018-05-02T14:08:51.326Z,16.22
2018-05-02T14:11:18.896Z,16.08
2018-05-02T14:13:46.450Z,15.96
2018-05-02T14:16:13.996Z,16.00
2018-05-02T14:18:41.521Z,15.88
2018-05-02T14:21:09.041Z,15.94
2018-05-02T14:23:36.557Z,15.89
2018-05-02T14:26:04.075Z,15.99
2018-05-02T14:28:31.629Z,15.94
2018-05-02T14:30:59.234Z,16.01
2018-05-02T14:33:26.807Z,16.09
2018-05-02T14:35:54.353Z,16.16
2018-05-02T14:38:22.101Z,16.19
2018-05-02T14:40:49.598Z,16.06
2018-05-02T14:43:17.150Z,16.11
2018-05-02T14:45:44.680Z,16.14
2018-05-02T14:48:12.203Z,16.16
2018-05-02T14:50:39.733Z,16.12
2018-05-02T14:53:07.258Z,16.15
2018-05-02T14:55:35.700Z,16.08
2018-05-02T14:58:03.228Z,16.18
2018-05-02T15:00:30.758Z,16.19
2018-05-02T15:02:58.485Z,16.20
2018-05-02T15:05:26.059Z,16.37
2018-05-02T15:07:53.602Z,16.32
2018-05-02T15:10:21.154Z,16.38
2018-05-02T15:12:48.679Z,16.33
2018-05-02T15:15:16.193Z,16.31
2018-05-02T15:17:43.715Z,16.42
2018-05-02T15:20:11.288Z,16.30
2018-05-02T15:22:38.794Z,16.45
2018-05-02T15:25:06.317Z,16.46
2018-05-02T15:27:33.833Z,16.49
2018-05-02T15:30:01.377Z,16.41
2018-05-02T15:32:28.985Z,16.39
2018-05-02T15:34:56.455Z,16.40
2018-05-02T15:37:23.971Z,16.41
2018-05-02T15:39:51.486Z,16.35
2018-05-02T15:42:19.026Z,16.33
2018-05-02T15:44:46.543Z,16.22
2018-05-02T15:47:14.063Z,16.36
2018-05-02T15:49:41.585Z,16.34
2018-05-02T15:52:09.115Z,16.30
2018-05-02T15:54:36.650Z,16.38
2018-05-02T15:57:04.171Z,16.40
2018-05-02T15:59:31.692Z,16.49
2018-05-02T16:01:59.333Z,16.42
2018-05-02T16:04:26.860Z,16.41
2018-05-02T16:06:54.377Z,16.43
2018-05-02T16:09:21.906Z,16.40
2018-05-02T16:11:49.429Z,16.22
2018-05-02T16:14:16.947Z,16.37
2018-05-02T16:16:44.486Z,16.33
2018-05-02T16:19:12.010Z,16.27
2018-05-02T16:21:39.532Z,16.31
2018-05-02T16:24:07.073Z,16.15
2018-05-02T16:26:34.584Z,16.12
2018-05-02T16:29:02.104Z,16.10
2018-05-02T16:31:29.622Z,16.09
2018-05-02T16:33:57.144Z,16.08
2018-05-02T16:36:24.675Z,16.02
2018-05-02T16:38:52.197Z,16.03
2018-05-02T16:41:19.704Z,16.01
2018-05-02T16:43:47.233Z,16.08
2018-05-02T16:46:14.746Z,16.03
2018-05-02T16:48:42.280Z,15.94
2018-05-02T16:51:09.813Z,15.97
2018-05-02T16:53:37.338Z,15.97
2018-05-02T16:56:04.855Z,15.89
2018-05-02T16:58:32.388Z,15.91
2018-05-02T17:00:59.935Z,15.91
2018-05-02T17:03:27.455Z,15.89
2018-05-02T17:05:54.975Z,15.90
2018-05-02T17:08:22.521Z,15.84
2018-05-02T17:10:50.044Z,15.85
2018-05-02T17:13:17.570Z,15.85
2018-05-02T17:15:45.088Z,15.81
2018-05-02T17:18:12.647Z,15.75
2018-05-02T17:20:40.160Z,15.75
2018-05-02T17:23:07.680Z,15.78
2018-05-02T17:25:35.199Z,15.71
2018-05-02T17:28:02.729Z,15.66
2018-05-02T17:30:30.261Z,15.60
2018-05-02T17:32:57.788Z,15.60
2018-05-02T17:35:25.310Z,15.61
2018-05-02T17:37:52.836Z,15.58
2018-05-02T17:40:20.351Z,15.57
2018-05-02T17:42:47.869Z,15.59
2018-05-02T17:45:15.382Z,15.58
2018-05-02T17:47:42.900Z,15.54
2018-05-02T17:50:10.431Z,15.50
2018-05-02T17:52:37.953Z,15.43
2018-05-02T17:55:05.484Z,15.46
2018-05-02T17:57:32.995Z,15.44
2018-05-02T18:00:00.520Z,15.43
2018-05-02T18:02:28.042Z,15.44
2018-05-02T18:04:55.569Z,15.44
2018-05-02T18:07:23.080Z,15.43
2018-05-02T18:09:50.602Z,15.43
2018-05-02T18:12:18.130Z,15.47
2018-05-02T18:14:45.647Z,15.46
2018-05-02T18:17:13.168Z,15.45
2018-05-02T18:19:40.675Z,15.43
2018-05-02T18:22:08.186Z,15.45
2018-05-02T18:24:35.721Z,15.43
2018-05-02T18:27:03.242Z,15.43
2018-05-02T18:29:30.763Z,15.39
2018-05-02T18:31:58.279Z,15.42
2018-05-02T18:34:25.800Z,15.43
2018-05-02T18:36:53.324Z,15.48
2018-05-02T18:39:20.844Z,15.41
2018-05-02T18:41:48.428Z,15.34
2018-05-02T18:44:15.982Z,15.35
2018-05-02T18:46:43.561Z,15.35
2018-05-02T18:49:11.089Z,15.35
2018-05-02T18:51:38.606Z,15.33
2018-05-02T18:54:06.130Z,15.29
2018-05-02T18:56:33.652Z,15.30
2018-05-02T18:59:01.294Z,15.21
2018-05-02T19:01:28.826Z,15.20
2018-05-02T19:03:56.386Z,15.20
2018-05-02T19:06:23.890Z,15.14
2018-05-02T19:08:51.501Z,15.13
2018-05-02T19:11:19.017Z,15.09
2018-05-02T19:13:52.064Z,15.09
2018-05-02T19:16:19.593Z,15.09
2018-05-02T19:18:52.826Z,15.05
2018-05-02T19:21:20.356Z,15.05
2018-05-02T19:23:47.897Z,14.98
2018-05-02T19:26:21.147Z,14.96
2018-05-02T19:28:48.668Z,14.97
2018-05-02T19:31:21.716Z,14.97
2018-05-02T19:33:53.063Z,14.95
2018-05-02T19:36:20.597Z,14.99
2018-05-02T19:38:48.125Z,14.93
2018-05-02T19:41:21.272Z,14.95
2018-05-02T19:43:54.354Z,14.93
2018-05-02T19:46:21.864Z,14.90
2018-05-02T19:48:49.440Z,14.89
2018-05-02T19:51:22.596Z,14.88
2018-05-02T19:53:50.077Z,14.84
2018-05-02T19:56:17.591Z,14.85
2018-05-02T19:58:45.128Z,14.87
2018-05-02T20:01:18.272Z,14.86
2018-05-02T20:03:45.801Z,14.86
2018-05-02T20:06:13.335Z,14.89
2018-05-02T20:08:46.449Z,14.87
2018-05-02T20:11:19.727Z,14.91
2018-05-02T20:13:52.929Z,14.88
2018-05-02T20:16:20.456Z,14.91
2018-05-02T20:18:47.973Z,14.88
2018-05-02T20:21:15.491Z,14.87
2018-05-02T20:23:43.018Z,14.88
2018-05-02T20:26:10.536Z,14.91
2018-05-02T20:28:38.064Z,14.90
2018-05-02T20:31:05.593Z,14.89
2018-05-02T20:33:33.113Z,14.87
2018-05-02T20:36:00.639Z,14.87
2018-05-02T20:38:28.174Z,14.79
2018-05-02T20:40:55.688Z,14.75
2018-05-02T20:43:23.221Z,14.73
2018-05-02T20:45:50.755Z,14.78
2018-05-02T20:48:18.283Z,14.79
2018-05-02T20:50:45.797Z,14.79
2018-05-02T20:53:13.329Z,14.76
2018-05-02T20:55:40.850Z,14.72
2018-05-02T20:58:08.363Z,14.65
2018-05-02T21:00:35.887Z,14.64
2018-05-02T21:03:03.420Z,14.66
2018-05-02T21:05:30.935Z,14.64
2018-05-02T21:07:58.465Z,14.66
2018-05-02T21:10:25.992Z,14.62
2018-05-02T21:12:53.504Z,14.62
2018-05-02T21:15:21.024Z,14.61
2018-05-02T21:17:48.536Z,14.60
2018-05-02T21:20:16.052Z,14.60
2018-05-02T21:22:43.675Z,14.57
2018-05-02T21:25:11.191Z,14.56
2018-05-02T21:27:38.713Z,14.54
2018-05-02T21:30:06.251Z,14.53
2018-05-02T21:32:33.782Z,14.52
2018-05-02T21:35:01.301Z,14.49
2018-05-02T21:37:28.835Z,14.47
2018-05-02T21:39:56.363Z,14.44
2018-05-02T21:42:23.914Z,14.51
2018-05-02T21:44:51.429Z,14.51
2018-05-02T21:47:18.964Z,14.50
2018-05-02T21:49:46.499Z,14.49
2018-05-02T21:52:14.024Z,14.44
2018-05-02T21:54:41.544Z,14.47
2018-05-02T21:57:09.064Z,14.47
2018-05-02T21:59:36.584Z,14.49
2018-05-02T22:02:04.104Z,14.46
2018-05-02T22:04:31.679Z,14.47
2018-05-02T22:06:59.221Z,14.45
2018-05-02T22:09:26.741Z,14.40
2018-05-02T22:11:54.261Z,14.44
2018-05-02T22:14:21.797Z,14.44
2018-05-02T22:16:49.319Z,14.47
2018-05-02T22:19:16.849Z,14.47
2018-05-02T22:21:44.409Z,14.48
2018-05-02T22:24:11.927Z,14.40
2018-05-02T22:26:39.448Z,14.42
2018-05-02T22:29:06.979Z,14.41
2018-05-02T22:31:34.500Z,14.40
2018-05-02T22:34:02.032Z,14.36
2018-05-02T22:36:29.577Z,14.39
2018-05-02T22:38:57.100Z,14.38
2018-05-02T22:41:24.624Z,14.38
2018-05-02T22:43:52.148Z,14.39
2018-05-02T22:46:19.656Z,14.40
2018-05-02T22:48:47.205Z,14.37
2018-05-02T22:51:14.732Z,14.37
2018-05-02T22:53:42.296Z,14.35
2018-05-02T22:56:09.807Z,14.35
2018-05-02T22:58:37.331Z,14.36
2018-05-02T23:01:04.863Z,14.37
2018-05-02T23:03:32.384Z,14.40
2018-05-02T23:05:59.942Z,14.34
2018-05-02T23:08:27.452Z,14.28
2018-05-02T23:10:54.963Z,14.28
2018-05-02T23:13:22.483Z,14.27
2018-05-02T23:15:50.021Z,14.23
2018-05-02T23:18:17.633Z,14.22
2018-05-02T23:20:45.086Z,14.20
2018-05-02T23:23:12.607Z,14.18
2018-05-02T23:25:40.119Z,14.26
2018-05-02T23:28:07.633Z,14.20
2018-05-02T23:30:35.155Z,14.19
2018-05-02T23:33:02.678Z,14.25
2018-05-02T23:35:30.200Z,14.25
2018-05-02T23:37:57.728Z,14.23
2018-05-02T23:40:25.242Z,14.26
2018-05-02T23:42:52.756Z,14.26
2018-05-02T23:45:20.287Z,14.27
2018-05-02T23:47:47.796Z,14.19
2018-05-02T23:50:15.324Z,14.15
2018-05-02T23:52:42.849Z,14.15
2018-05-02T23:55:10.372Z,14.16
2018-05-02T23:57:37.904Z,14.17
